createdAt,value
2023-02-12T00:00:52.051Z,103025.13
2023-02-12T00:03:19.189Z,103020.72
2023-02-12T00:05:46.298Z,103018.16
2023-02-12T00:08:14.256Z,103016.72
2023-02-12T00:10:43.285Z,103015.91
2023-02-12T00:13:11.913Z,103013.50
2023-02-12T00:15:42.955Z,103016.41
2023-02-12T00:18:10.514Z,103014.94
2023-02-12T00:20:38.356Z,103020.31
2023-02-12T00:23:06.389Z,103016.66
2023-02-12T00:25:34.200Z,103021.75
2023-02-12T00:28:01.295Z,103023.69
2023-02-12T00:30:28.450Z,103031.06
2023-02-12T00:32:55.758Z,103033.88
2023-02-12T00:35:22.873Z,103025.28
2023-02-12T00:37:50.789Z,103019.94
2023-02-12T00:40:18.091Z,103022.06
2023-02-12T00:42:45.151Z,103021.84
2023-02-12T00:45:12.288Z,103017.38
2023-02-12T00:47:39.404Z,103026.31
2023-02-12T00:50:07.259Z,103028.34
2023-02-12T00:52:34.343Z,103024.72
2023-02-12T00:55:01.526Z,103015.72
2023-02-12T00:57:28.697Z,103022.56
2023-02-12T00:59:56.964Z,103013.75
2023-02-12T01:02:24.258Z,103024.78
2023-02-12T01:04:51.662Z,103024.78
2023-02-12T01:07:18.783Z,103026.53
2023-02-12T01:09:46.137Z,103022.19
2023-02-12T01:12:13.333Z,103026.19
2023-02-12T01:14:40.424Z,103018.00
2023-02-12T01:17:09.642Z,103028.19
2023-02-12T01:19:36.847Z,103027.41
2023-02-12T01:22:04.008Z,103031.69
2023-02-12T01:24:31.162Z,103023.09
2023-02-12T01:26:58.939Z,103019.75
2023-02-12T01:29:26.069Z,103025.72
2023-02-12T01:31:53.258Z,103015.34
2023-02-12T01:34:20.463Z,103009.78
2023-02-12T01:36:47.582Z,103022.75
2023-02-12T01:39:14.698Z,103017.63
2023-02-12T01:41:44.702Z,103009.75
2023-02-12T01:44:22.011Z,103004.41
2023-02-12T01:46:55.709Z,102999.94
2023-02-12T01:49:29.447Z,102995.69
2023-02-12T01:52:04.904Z,103001.00
2023-02-12T01:54:35.875Z,102987.47
2023-02-12T01:57:06.427Z,102999.47
2023-02-12T01:59:36.565Z,102980.22
2023-02-12T02:02:05.066Z,102982.53
2023-02-12T02:04:40.133Z,102985.75
2023-02-12T02:07:09.783Z,102986.69
2023-02-12T02:09:39.085Z,102986.19
2023-02-12T02:12:25.485Z,102981.81
2023-02-12T02:14:56.532Z,102981.88
2023-02-12T02:17:35.470Z,102975.75
2023-02-12T02:20:39.771Z,102976.44
2023-02-12T02:23:28.588Z,102977.03
2023-02-12T02:26:40.262Z,102989.47
2023-02-12T02:29:26.652Z,102991.38
2023-02-12T02:32:16.841Z,102987.28
2023-02-12T02:35:09.181Z,102983.09
2023-02-12T02:37:41.483Z,102985.56
2023-02-12T02:40:14.286Z,102983.13
2023-02-12T02:42:51.415Z,102991.75
2023-02-12T02:45:30.768Z,102990.84
2023-02-12T02:48:06.767Z,102980.97
2023-02-12T02:50:38.746Z,102982.56
2023-02-12T02:53:11.994Z,102970.84
2023-02-12T02:55:46.244Z,102971.53
2023-02-12T02:58:20.748Z,102958.72
2023-02-12T03:01:02.000Z,102961.69
2023-02-12T03:03:44.675Z,102954.06
2023-02-12T03:06:42.085Z,102947.25
2023-02-12T03:09:27.428Z,102940.47
2023-02-12T03:11:59.011Z,102944.59
2023-02-12T03:14:32.251Z,102942.97
2023-02-12T03:17:21.005Z,102950.31
2023-02-12T03:19:58.420Z,102950.44
2023-02-12T03:22:31.473Z,102941.22
2023-02-12T03:25:14.050Z,102940.31
2023-02-12T03:27:57.338Z,102925.72
2023-02-12T03:30:33.974Z,102933.28
2023-02-12T03:33:19.573Z,102940.88
2023-02-12T03:35:57.684Z,102952.34
2023-02-12T03:38:54.862Z,102967.22
2023-02-12T03:41:32.070Z,102955.00
2023-02-12T03:44:15.577Z,102959.19
2023-02-12T03:47:10.165Z,102961.78
2023-02-12T03:49:51.052Z,102963.47
2023-02-12T03:52:18.200Z,102966.09
2023-02-12T03:54:45.941Z,102955.31
2023-02-12T03:57:21.511Z,102950.09
2023-02-12T03:59:49.788Z,102942.38
2023-02-12T04:02:18.925Z,102932.59
2023-02-12T04:04:47.584Z,102937.53
2023-02-12T04:07:16.359Z,102938.84
2023-02-12T04:09:44.016Z,102933.84
2023-02-12T04:12:44.352Z,102927.84
2023-02-12T04:15:20.232Z,102928.63
2023-02-12T04:18:14.928Z,102925.44
2023-02-12T04:20:50.736Z,102921.16
2023-02-12T04:24:05.403Z,102921.06
2023-02-12T04:27:02.063Z,102928.66
2023-02-12T04:30:09.675Z,102925.59
2023-02-12T04:32:41.415Z,102925.69
2023-02-12T04:35:34.857Z,102927.75
2023-02-12T04:38:26.740Z,102918.13
2023-02-12T04:40:53.970Z,102923.66
2023-02-12T04:43:35.349Z,102923.88
2023-02-12T04:46:08.324Z,102929.53
2023-02-12T04:48:39.844Z,102920.00
2023-02-12T04:51:06.943Z,102909.94
2023-02-12T04:53:34.007Z,102899.78
2023-02-12T04:56:01.075Z,102912.13
2023-02-12T04:58:28.161Z,102910.69
2023-02-12T05:00:59.301Z,102917.66
2023-02-12T05:03:26.397Z,102929.84
2023-02-12T05:05:53.648Z,102937.13
2023-02-12T05:08:20.784Z,102947.84
2023-02-12T05:10:47.905Z,102955.63
2023-02-12T05:13:14.962Z,102948.75
2023-02-12T05:15:42.094Z,102953.09
2023-02-12T05:18:09.205Z,102965.66
2023-02-12T05:20:36.290Z,102960.53
2023-02-12T05:23:03.510Z,102951.84
2023-02-12T05:25:31.915Z,102941.50
2023-02-12T05:27:59.133Z,102935.47
2023-02-12T05:30:26.221Z,102941.53
2023-02-12T05:32:53.280Z,102947.56
2023-02-12T05:35:20.461Z,102943.47
2023-02-12T05:37:47.581Z,102937.66
2023-02-12T05:40:15.150Z,102943.84
2023-02-12T05:42:42.233Z,102949.06
2023-02-12T05:45:09.599Z,102942.84
2023-02-12T05:47:36.769Z,102932.75
2023-02-12T05:50:04.080Z,102921.38
2023-02-12T05:52:31.159Z,102921.38
2023-02-12T05:54:58.261Z,102927.44
2023-02-12T05:57:25.424Z,102917.28
2023-02-12T05:59:52.593Z,102927.81
2023-02-12T06:02:19.732Z,102911.25
2023-02-12T06:04:48.573Z,102914.19
2023-02-12T06:07:15.877Z,102909.56
2023-02-12T06:09:42.992Z,102916.06
2023-02-12T06:12:10.066Z,102925.03
2023-02-12T06:14:37.185Z,102927.81
2023-02-12T06:17:04.233Z,102934.03
2023-02-12T06:19:31.331Z,102927.31
2023-02-12T06:21:58.420Z,102924.28
2023-02-12T06:24:25.756Z,102943.59
2023-02-12T06:26:52.850Z,102952.59
2023-02-12T06:29:20.379Z,102957.28
2023-02-12T06:31:48.111Z,102958.63
2023-02-12T06:34:18.875Z,102969.91
2023-02-12T06:36:47.283Z,102976.09
2023-02-12T06:39:16.443Z,102987.59
2023-02-12T06:41:44.576Z,102989.72
2023-02-12T06:44:12.673Z,102995.31
2023-02-12T06:46:39.833Z,102996.41
2023-02-12T06:49:07.151Z,102993.13
2023-02-12T06:51:36.337Z,102992.22
2023-02-12T06:54:03.495Z,103004.44
2023-02-12T06:56:30.554Z,103003.31
2023-02-12T06:59:01.085Z,103007.72
2023-02-12T07:01:29.821Z,103008.09
2023-02-12T07:03:59.987Z,103004.16
2023-02-12T07:06:29.332Z,103005.31
2023-02-12T07:08:56.949Z,103012.41
2023-02-12T07:11:29.322Z,103012.63
2023-02-12T07:13:56.413Z,103014.59
2023-02-12T07:16:23.799Z,103022.69
2023-02-12T07:18:51.129Z,103037.53
2023-02-12T07:21:18.592Z,103042.13
2023-02-12T07:23:51.992Z,103044.09
2023-02-12T07:26:20.766Z,103039.13
2023-02-12T07:28:48.442Z,103035.16
2023-02-12T07:31:18.731Z,103046.72
2023-02-12T07:33:46.685Z,103034.94
2023-02-12T07:36:17.880Z,103040.56
2023-02-12T07:38:45.311Z,103056.31
2023-02-12T07:41:13.629Z,103051.38
2023-02-12T07:43:42.141Z,103056.91
2023-02-12T07:46:17.043Z,103041.44
2023-02-12T07:48:45.210Z,103040.09
2023-02-12T07:51:16.834Z,103037.81
2023-02-12T07:53:43.925Z,103034.59
2023-02-12T07:56:14.302Z,103029.75
2023-02-12T07:58:44.965Z,103024.81
2023-02-12T08:01:22.365Z,103028.44
2023-02-12T08:03:50.728Z,103028.59
2023-02-12T08:06:22.877Z,103024.38
2023-02-12T08:08:58.941Z,103025.50
2023-02-12T08:11:27.675Z,103025.78
2023-02-12T08:13:55.393Z,103043.41
2023-02-12T08:16:24.711Z,103061.00
2023-02-12T08:18:52.880Z,103061.13
2023-02-12T08:21:22.976Z,103060.44
2023-02-12T08:23:50.864Z,103068.41
2023-02-12T08:26:19.305Z,103066.78
2023-02-12T08:29:04.210Z,103071.22
2023-02-12T08:31:34.275Z,103076.53
2023-02-12T08:34:01.993Z,103077.47
2023-02-12T08:36:38.359Z,103085.34
2023-02-12T08:39:07.473Z,103076.59
2023-02-12T08:41:35.250Z,103073.94
2023-02-12T08:44:04.199Z,103073.97
2023-02-12T08:46:36.570Z,103076.56
2023-02-12T08:49:06.941Z,103076.50
2023-02-12T08:51:36.292Z,103081.66
2023-02-12T08:54:06.287Z,103078.91
2023-02-12T08:56:35.187Z,103068.34
2023-02-12T08:59:04.905Z,103070.94
2023-02-12T09:01:34.014Z,103057.75
2023-02-12T09:04:01.563Z,103057.75
2023-02-12T09:06:28.611Z,103065.53
2023-02-12T09:08:55.786Z,103059.22
2023-02-12T09:11:30.644Z,103057.41
2023-02-12T09:14:01.017Z,103063.50
2023-02-12T09:16:29.938Z,103066.94
2023-02-12T09:18:57.664Z,103072.94
2023-02-12T09:21:25.221Z,103073.66
2023-02-12T09:23:53.159Z,103070.84
2023-02-12T09:26:23.017Z,103066.38
2023-02-12T09:28:51.300Z,103067.03
2023-02-12T09:31:26.454Z,103062.50
2023-02-12T09:33:57.696Z,103063.13
2023-02-12T09:36:25.437Z,103049.78
2023-02-12T09:38:54.147Z,103054.13
2023-02-12T09:41:23.890Z,103061.13
2023-02-12T09:43:58.466Z,103050.31
2023-02-12T09:47:00.172Z,103053.03
2023-02-12T09:49:45.643Z,103063.75
2023-02-12T09:52:30.873Z,103067.31
2023-02-12T09:54:58.914Z,103069.72
2023-02-12T09:57:31.277Z,103072.06
2023-02-12T10:00:02.934Z,103074.53
2023-02-12T10:02:34.878Z,103090.47
2023-02-12T10:05:02.762Z,103094.69
2023-02-12T10:08:04.711Z,103098.75
2023-02-12T10:10:43.802Z,103091.47
2023-02-12T10:13:40.229Z,103092.72
2023-02-12T10:16:16.156Z,103080.72
2023-02-12T10:18:51.988Z,103088.69
2023-02-12T10:21:42.393Z,103090.31
2023-02-12T10:24:18.256Z,103091.47
2023-02-12T10:26:49.999Z,103090.59
2023-02-12T10:29:28.882Z,103082.38
2023-02-12T10:32:07.693Z,103071.09
2023-02-12T10:34:37.126Z,103077.56
2023-02-12T10:37:16.252Z,103074.78
2023-02-12T10:39:50.482Z,103076.31
2023-02-12T10:42:45.445Z,103074.47
2023-02-12T10:45:25.212Z,103080.16
2023-02-12T10:48:01.847Z,103078.38
2023-02-12T10:50:41.575Z,103073.75
2023-02-12T10:53:17.545Z,103076.84
2023-02-12T10:55:44.636Z,103063.03
2023-02-12T10:58:21.939Z,103056.66
2023-02-12T11:01:00.130Z,103049.47
2023-02-12T11:03:34.927Z,103040.41
2023-02-12T11:06:20.365Z,103051.66
2023-02-12T11:08:47.711Z,103044.16
2023-02-12T11:11:27.196Z,103041.56
2023-02-12T11:14:03.044Z,103040.88
2023-02-12T11:16:33.212Z,103040.69
2023-02-12T11:19:06.297Z,103037.47
2023-02-12T11:21:34.660Z,103037.13
2023-02-12T11:24:32.627Z,103031.78
2023-02-12T11:27:21.592Z,103027.41
2023-02-12T11:30:12.052Z,103032.38
2023-02-12T11:32:39.324Z,103035.09
2023-02-12T11:35:13.551Z,103031.53
2023-02-12T11:37:43.537Z,103023.19
2023-02-12T11:40:22.629Z,103025.44
2023-02-12T11:43:02.396Z,103029.06
2023-02-12T11:45:52.468Z,103024.31
2023-02-12T11:48:24.768Z,103021.31
2023-02-12T11:50:54.763Z,103025.84
2023-02-12T11:53:34.297Z,103028.31
2023-02-12T11:56:10.390Z,103029.75
2023-02-12T11:58:38.577Z,103031.56
2023-02-12T12:01:12.724Z,103029.53
2023-02-12T12:03:58.473Z,103019.19
2023-02-12T12:06:37.968Z,103026.31
2023-02-12T12:09:26.803Z,103022.47
2023-02-12T12:12:09.024Z,103025.16
2023-02-12T12:15:15.811Z,103031.78
2023-02-12T12:18:07.350Z,103029.34
2023-02-12T12:20:45.111Z,103022.44
2023-02-12T12:23:34.787Z,103028.44
2023-02-12T12:26:09.483Z,103042.78
2023-02-12T12:29:11.481Z,103033.31
2023-02-12T12:31:42.740Z,103021.56
2023-02-12T12:34:11.568Z,103015.69
2023-02-12T12:36:57.397Z,103014.66
2023-02-12T12:39:27.191Z,103013.09
2023-02-12T12:42:28.210Z,103013.19
2023-02-12T12:45:10.386Z,103013.19
2023-02-12T12:47:49.452Z,103008.63
2023-02-12T12:50:35.430Z,103010.69
2023-02-12T12:53:24.532Z,103015.06
2023-02-12T12:56:24.964Z,103019.06
2023-02-12T12:59:27.131Z,103014.44
2023-02-12T13:02:28.023Z,103006.41
2023-02-12T13:05:13.798Z,103006.28
2023-02-12T13:07:46.972Z,103010.91
2023-02-12T13:10:23.366Z,103010.16
2023-02-12T13:13:06.796Z,103009.03
2023-02-12T13:15:46.589Z,102998.44
2023-02-12T13:18:50.117Z,103005.38
2023-02-12T13:21:35.742Z,103005.31
2023-02-12T13:24:04.793Z,103016.41
2023-02-12T13:26:43.717Z,103013.06
2023-02-12T13:29:20.433Z,103007.84
2023-02-12T13:31:57.984Z,103009.66
2023-02-12T13:34:29.592Z,103013.75
2023-02-12T13:36:58.709Z,103006.28
2023-02-12T13:39:52.977Z,103024.53
2023-02-12T13:42:47.539Z,103009.47
2023-02-12T13:45:36.675Z,103009.53
2023-02-12T13:48:35.189Z,103011.94
2023-02-12T13:51:14.233Z,103011.25
2023-02-12T13:53:47.135Z,103011.16
2023-02-12T13:56:34.907Z,103010.75
2023-02-12T13:59:02.311Z,103013.19
2023-02-12T14:01:49.245Z,103007.44
2023-02-12T14:04:37.628Z,103011.22
2023-02-12T14:07:07.731Z,103007.97
2023-02-12T14:09:49.792Z,103011.38
2023-02-12T14:12:30.391Z,103002.41
2023-02-12T14:15:09.754Z,103001.63
2023-02-12T14:17:36.858Z,103006.34
2023-02-12T14:20:06.833Z,103011.19
2023-02-12T14:22:33.925Z,103016.59
2023-02-12T14:25:21.750Z,103013.72
2023-02-12T14:27:52.667Z,103011.44
2023-02-12T14:30:39.024Z,103008.53
2023-02-12T14:33:08.269Z,103005.72
2023-02-12T14:35:36.801Z,103011.38
2023-02-12T14:38:47.764Z,103005.34
2023-02-12T14:41:37.341Z,103008.13
2023-02-12T14:44:29.404Z,103012.47
2023-02-12T14:46:58.838Z,103006.88
2023-02-12T14:49:27.586Z,103011.84
2023-02-12T14:52:07.594Z,103009.69
2023-02-12T14:54:41.403Z,103020.38
2023-02-12T14:57:19.260Z,103014.50
2023-02-12T14:59:48.451Z,103009.72
2023-02-12T15:02:27.822Z,103013.91
2023-02-12T15:05:01.376Z,103012.19
2023-02-12T15:07:41.033Z,103020.59
2023-02-12T15:10:19.535Z,103018.88
2023-02-12T15:13:16.065Z,103026.13
2023-02-12T15:15:50.944Z,103024.00
2023-02-12T15:18:28.196Z,103035.72
2023-02-12T15:21:20.717Z,103023.56
2023-02-12T15:24:00.425Z,103033.06
2023-02-12T15:26:29.313Z,103033.50
2023-02-12T15:28:56.455Z,103031.22
2023-02-12T15:31:29.258Z,103028.84
2023-02-12T15:33:59.197Z,103034.09
2023-02-12T15:36:29.406Z,103038.59
2023-02-12T15:39:01.531Z,103035.34
2023-02-12T15:41:36.846Z,103042.00
2023-02-12T15:44:31.206Z,103042.09
2023-02-12T15:47:01.025Z,103048.53
2023-02-12T15:49:33.876Z,103051.63
2023-02-12T15:52:07.191Z,103050.81
2023-02-12T15:54:35.386Z,103051.50
2023-02-12T15:57:10.261Z,103059.41
2023-02-12T15:59:37.897Z,103053.94
2023-02-12T16:02:18.588Z,103062.34
2023-02-12T16:04:46.021Z,103058.00
2023-02-12T16:07:14.871Z,103063.78
2023-02-12T16:09:43.152Z,103061.88
2023-02-12T16:12:15.397Z,103059.56
2023-02-12T16:14:47.919Z,103067.13
2023-02-12T16:17:33.112Z,103063.41
2023-02-12T16:20:22.004Z,103077.03
2023-02-12T16:22:51.381Z,103073.19
2023-02-12T16:25:28.527Z,103077.31
2023-02-12T16:28:02.922Z,103082.06
2023-02-12T16:30:31.835Z,103077.13
2023-02-12T16:32:59.940Z,103085.25
2023-02-12T16:35:32.756Z,103081.06
2023-02-12T16:38:39.076Z,103078.72
2023-02-12T16:41:18.109Z,103093.91
2023-02-12T16:44:01.241Z,103094.88
2023-02-12T16:46:31.698Z,103092.38
2023-02-12T16:49:01.253Z,103096.84
2023-02-12T16:51:31.933Z,103110.19
2023-02-12T16:54:01.541Z,103117.38
2023-02-12T16:56:37.797Z,103114.88
2023-02-12T16:59:05.033Z,103115.91
2023-02-12T17:01:36.444Z,103123.88
2023-02-12T17:04:13.313Z,103122.22
2023-02-12T17:06:40.434Z,103125.75
2023-02-12T17:09:07.600Z,103128.44
2023-02-12T17:11:34.722Z,103131.16
2023-02-12T17:14:01.813Z,103132.09
2023-02-12T17:16:31.368Z,103132.16
2023-02-12T17:19:00.041Z,103143.63
2023-02-12T17:21:31.853Z,103148.00
2023-02-12T17:23:59.125Z,103151.53
2023-02-12T17:26:26.233Z,103147.19
2023-02-12T17:28:53.342Z,103150.69
2023-02-12T17:31:20.794Z,103152.53
2023-02-12T17:33:48.150Z,103154.34
2023-02-12T17:36:15.240Z,103170.13
2023-02-12T17:38:42.327Z,103158.72
2023-02-12T17:41:10.921Z,103171.91
2023-02-12T17:43:38.463Z,103180.63
2023-02-12T17:46:11.260Z,103185.91
2023-02-12T17:48:38.514Z,103190.31
2023-02-12T17:51:06.042Z,103188.56
2023-02-12T17:53:33.129Z,103191.22
2023-02-12T17:56:00.446Z,103187.72
2023-02-12T17:58:27.670Z,103191.22
2023-02-12T18:00:55.857Z,103191.22
2023-02-12T18:03:23.324Z,103192.09
2023-02-12T18:05:50.406Z,103199.09
2023-02-12T18:08:17.651Z,103204.31
2023-02-12T18:10:45.144Z,103208.69
2023-02-12T18:13:13.958Z,103208.72
2023-02-12T18:15:41.399Z,103203.44
2023-02-12T18:18:09.301Z,103213.94
2023-02-12T18:20:36.560Z,103223.56
2023-02-12T18:23:04.511Z,103221.81
2023-02-12T18:25:31.572Z,103217.47
2023-02-12T18:28:01.222Z,103219.19
2023-02-12T18:30:28.662Z,103222.69
2023-02-12T18:32:55.780Z,103218.31
2023-02-12T18:35:22.847Z,103227.91
2023-02-12T18:37:50.436Z,103228.78
2023-02-12T18:40:17.659Z,103234.81
2023-02-12T18:42:45.030Z,103236.56
2023-02-12T18:45:12.228Z,103243.50
2023-02-12T18:47:39.345Z,103240.78
2023-02-12T18:50:07.073Z,103246.84
2023-02-12T18:52:34.200Z,103246.75
2023-02-12T18:55:01.265Z,103242.28
2023-02-12T18:57:29.614Z,103244.03
2023-02-12T18:59:56.860Z,103246.66
2023-02-12T19:02:24.188Z,103248.47
2023-02-12T19:04:51.390Z,103245.00
2023-02-12T19:07:18.525Z,103249.38
2023-02-12T19:09:45.850Z,103257.13
2023-02-12T19:12:12.984Z,103259.72
2023-02-12T19:14:40.048Z,103249.22
2023-02-12T19:17:07.110Z,103252.75
2023-02-12T19:19:34.283Z,103254.41
2023-02-12T19:22:01.389Z,103254.47
2023-02-12T19:24:40.889Z,103264.03
2023-02-12T19:27:11.758Z,103258.63
2023-02-12T19:29:38.837Z,103264.66
2023-02-12T19:32:05.994Z,103267.13
2023-02-12T19:34:33.126Z,103274.84
2023-02-12T19:37:00.185Z,103273.06
2023-02-12T19:39:27.576Z,103285.25
2023-02-12T19:41:56.154Z,103286.94
2023-02-12T19:44:24.996Z,103283.63
2023-02-12T19:46:52.646Z,103290.47
2023-02-12T19:49:25.912Z,103285.19
2023-02-12T19:51:53.664Z,103279.03
2023-02-12T19:54:22.976Z,103280.56
2023-02-12T19:56:51.720Z,103278.88
2023-02-12T19:59:21.529Z,103282.31
2023-02-12T20:01:49.685Z,103287.56
2023-02-12T20:04:20.139Z,103287.47
2023-02-12T20:06:50.779Z,103299.63
2023-02-12T20:09:19.441Z,103303.22
2023-02-12T20:11:46.846Z,103298.91
2023-02-12T20:14:14.500Z,103296.25
2023-02-12T20:16:43.758Z,103303.94
2023-02-12T20:19:13.006Z,103311.69
2023-02-12T20:21:40.731Z,103301.13
2023-02-12T20:24:08.161Z,103302.88
2023-02-12T20:26:35.731Z,103302.81
2023-02-12T20:29:05.197Z,103304.59
2023-02-12T20:31:36.051Z,103300.22
2023-02-12T20:34:10.809Z,103308.84
2023-02-12T20:36:39.789Z,103305.28
2023-02-12T20:39:09.660Z,103310.53
2023-02-12T20:41:37.235Z,103316.50
2023-02-12T20:44:07.681Z,103313.81
2023-02-12T20:46:39.531Z,103325.19
2023-02-12T20:49:06.845Z,103319.00
2023-02-12T20:51:34.342Z,103324.13
2023-02-12T20:54:02.587Z,103331.16
2023-02-12T20:56:32.112Z,103326.53
2023-02-12T20:59:00.108Z,103330.69
2023-02-12T21:01:34.565Z,103332.25
2023-02-12T21:04:05.109Z,103334.78
2023-02-12T21:06:32.955Z,103332.25
2023-02-12T21:09:00.068Z,103336.78
2023-02-12T21:11:28.701Z,103330.59
2023-02-12T21:13:59.336Z,103334.00
2023-02-12T21:16:32.333Z,103334.78
2023-02-12T21:18:59.776Z,103342.00
2023-02-12T21:21:29.745Z,103340.94
2023-02-12T21:23:58.257Z,103344.53
2023-02-12T21:26:27.007Z,103347.06
2023-02-12T21:28:56.352Z,103347.81
2023-02-12T21:31:29.305Z,103357.22
2023-02-12T21:33:58.252Z,103358.94
2023-02-12T21:36:28.352Z,103355.34
2023-02-12T21:38:55.779Z,103362.34
2023-02-12T21:41:28.428Z,103366.56
2023-02-12T21:44:10.096Z,103375.19
2023-02-12T21:46:37.539Z,103366.50
2023-02-12T21:49:05.133Z,103373.53
2023-02-12T21:51:37.924Z,103375.03
2023-02-12T21:54:10.664Z,103378.22
2023-02-12T21:56:40.173Z,103372.28
2023-02-12T21:59:08.626Z,103374.69
2023-02-12T22:01:38.104Z,103378.81
2023-02-12T22:04:06.767Z,103373.41
2023-02-12T22:06:40.844Z,103379.19
2023-02-12T22:09:09.382Z,103371.19
2023-02-12T22:11:37.675Z,103371.56
2023-02-12T22:14:07.158Z,103377.59
2023-02-12T22:16:35.863Z,103374.19
2023-02-12T22:19:03.944Z,103369.91
2023-02-12T22:21:34.264Z,103381.84
2023-02-12T22:24:03.260Z,103383.50
2023-02-12T22:26:31.828Z,103385.03
2023-02-12T22:29:02.293Z,103387.38
2023-02-12T22:31:32.261Z,103389.75
2023-02-12T22:34:08.393Z,103393.88
2023-02-12T22:36:36.798Z,103389.63
2023-02-12T22:39:05.037Z,103399.38
2023-02-12T22:41:32.361Z,103404.44
2023-02-12T22:44:00.850Z,103401.25
2023-02-12T22:46:28.130Z,103410.97
2023-02-12T22:48:55.406Z,103413.56
2023-02-12T22:51:25.597Z,103417.03
2023-02-12T22:53:53.024Z,103417.00
2023-02-12T22:56:20.434Z,103419.63
2023-02-12T22:58:48.047Z,103422.31
2023-02-12T23:01:18.369Z,103420.69
2023-02-12T23:03:45.996Z,103429.41
2023-02-12T23:06:15.513Z,103428.53
2023-02-12T23:08:43.263Z,103422.50
2023-02-12T23:11:11.195Z,103429.56
2023-02-12T23:13:38.628Z,103433.06
2023-02-12T23:16:05.842Z,103437.38
2023-02-12T23:18:33.337Z,103438.28
2023-02-12T23:21:01.330Z,103433.13
2023-02-12T23:23:28.683Z,103440.97
2023-02-12T23:25:56.249Z,103447.16
2023-02-12T23:28:23.668Z,103450.72
2023-02-12T23:30:52.061Z,103448.25
2023-02-12T23:33:20.185Z,103447.34
2023-02-12T23:35:48.230Z,103455.25
2023-02-12T23:38:15.927Z,103446.63
2023-02-12T23:40:43.643Z,103453.53
2023-02-12T23:43:11.004Z,103448.16
2023-02-12T23:45:38.289Z,103442.16
2023-02-12T23:48:05.670Z,103448.31
2023-02-12T23:50:32.822Z,103446.63
2023-02-12T23:53:00.046Z,103446.59
2023-02-12T23:55:27.211Z,103450.91
2023-02-12T23:57:54.399Z,103447.28
